テヘラン の空港の天気 - METARとTAF

メヘラーバード国際空港(テヘラン) ( OIII / THR ) - イラン テヘラン
飛行場実況気象(Metar)
観測時間04/25 19:00 IRDT (04/25 14:30 UTC)
風向・風速南 4m/s
視程10km以上
天気現象
少しの雲 雲底高度 1220m
気温22℃
湿度20%
気圧1019hPa
METAROIII 251430Z 18008KT 9999 FEW040 22/M02 Q1019 A3009
過去の天気等 Google飛行場航空写真 Wunderground天気予報

過去48時間のMETAR

飛行場予報(TAF)
発表時間: 4/25 15:40 IRDT (4/25 11:10 UTC)
予報対象時間: 25日16時 IRDT ~ 26日22時 IRDT
風向・風速南東 5m/s
視程7,000m
なし
26日10時 IRDT ~ 26日16時 IRDT に一時的に
少しの塔状積雲 雲底高度 1,070m
全天の4割程度の雲 雲底高度 1,220m
TAF OIII 251110Z 2512/2618 13005MPS 7000 NSC
TEMPO 2606/2612 FEW035TCU SCT040